Terminal Aerodrome Forecast
Issued by NWS

Home | Current Version | Previous Version | Text Only | Print | Product List | Glossary On
Versions: 1 2 3 4 5 6 7 8 9 10 11 12 13 14
892
FTUS42 TJSJ 271740
TAFKPK
TAF
TKPK 271740Z 2718/2818 09009KT P6SM FEW021
     FM272300 07010KT P6SM SCT018 SCT020=

USA.gov is the U.S. government's official web portal to all federal, state and local government web resources and services.